createdAt,value
2019-05-09T00:00:03.931Z,11.2
2019-05-09T00:05:03.311Z,11.1
2019-05-09T00:10:01.164Z,11.1
2019-05-09T00:15:04.365Z,11.1
2019-05-09T00:20:03.499Z,11.1
2019-05-09T00:25:03.226Z,11
2019-05-09T00:30:03.627Z,11
2019-05-09T00:35:03.836Z,11
2019-05-09T00:40:03.835Z,11
2019-05-09T00:45:03.895Z,11
2019-05-09T00:50:01.609Z,11
2019-05-09T00:55:03.713Z,11
2019-05-09T01:00:03.819Z,11.1
2019-05-09T01:05:03.897Z,11.1
2019-05-09T01:10:03.878Z,11.1
2019-05-09T01:15:03.302Z,11.1
2019-05-09T01:20:03.336Z,11
2019-05-09T01:25:03.903Z,11.1
2019-05-09T01:30:01.374Z,11
2019-05-09T01:35:03.800Z,11
2019-05-09T01:40:01.519Z,11
2019-05-09T01:45:03.693Z,11
2019-05-09T01:50:03.868Z,11
2019-05-09T01:55:03.671Z,11
2019-05-09T02:00:03.898Z,11
2019-05-09T02:05:03.899Z,11
2019-05-09T02:10:03.348Z,10.9
2019-05-09T02:15:03.854Z,10.9
2019-05-09T02:20:03.930Z,10.8
2019-05-09T02:25:01.232Z,10.7
2019-05-09T02:30:15.110Z,10.7
2019-05-09T02:35:04.716Z,10.6
2019-05-09T02:40:01.309Z,10.7
2019-05-09T02:45:02.130Z,10.7
2019-05-09T02:50:01.895Z,10.7
2019-05-09T02:55:01.713Z,10.7
2019-05-09T03:00:01.573Z,10.7
2019-05-09T03:05:01.384Z,10.7
2019-05-09T03:10:02.315Z,10.7
2019-05-09T03:15:01.320Z,10.7
2019-05-09T03:20:01.551Z,10.7
2019-05-09T03:25:01.772Z,10.7
2019-05-09T03:30:01.811Z,10.8
2019-05-09T03:35:01.344Z,10.7
2019-05-09T03:40:01.436Z,10.7
2019-05-09T03:45:01.836Z,10.7
2019-05-09T03:50:02.021Z,10.8
2019-05-09T03:55:01.852Z,10.8
2019-05-09T04:00:02.238Z,10.8
2019-05-09T04:05:01.879Z,10.8
2019-05-09T04:10:01.494Z,10.9
2019-05-09T04:15:01.691Z,10.9
2019-05-09T04:20:02.164Z,10.9
2019-05-09T04:25:01.314Z,10.9
2019-05-09T04:30:01.809Z,10.9
2019-05-09T04:35:01.863Z,10.9
2019-05-09T04:40:03.405Z,10.9
2019-05-09T04:45:03.298Z,10.9
2019-05-09T04:50:02.861Z,10.9
2019-05-09T04:55:01.293Z,10.9
2019-05-09T05:00:01.999Z,10.9
2019-05-09T05:05:01.731Z,10.8
2019-05-09T05:10:02.105Z,10.9
2019-05-09T05:15:01.870Z,10.9
2019-05-09T05:20:01.473Z,10.8
2019-05-09T05:25:01.734Z,10.9
2019-05-09T05:30:01.622Z,10.9
2019-05-09T05:35:01.662Z,10.9
2019-05-09T05:40:01.846Z,11
2019-05-09T05:45:01.832Z,11.2
2019-05-09T05:50:01.761Z,11.1
2019-05-09T05:55:01.974Z,11.1
2019-05-09T06:00:01.557Z,11.3
2019-05-09T06:05:01.199Z,11.5
2019-05-09T06:10:01.653Z,11.7
2019-05-09T06:15:01.762Z,11.8
2019-05-09T06:20:01.942Z,11.7
2019-05-09T06:25:01.893Z,11.8
2019-05-09T06:30:01.655Z,12
2019-05-09T06:35:01.817Z,12.4
2019-05-09T06:40:01.746Z,12.5
2019-05-09T06:45:01.825Z,12.8
2019-05-09T06:50:01.669Z,12.8
2019-05-09T06:55:01.523Z,12.9
2019-05-09T07:00:01.828Z,13.1
2019-05-09T07:05:01.465Z,13.1
2019-05-09T07:10:02.124Z,13
2019-05-09T07:15:01.874Z,13.2
2019-05-09T07:20:02.081Z,13.2
2019-05-09T07:25:06.302Z,13.3
2019-05-09T07:30:01.320Z,13.3
2019-05-09T07:35:01.825Z,13.3
2019-05-09T07:40:01.528Z,13.2
2019-05-09T07:45:01.903Z,13.3
2019-05-09T07:50:02.440Z,13.5
2019-05-09T07:55:01.263Z,13.6
2019-05-09T08:00:01.728Z,13.8
2019-05-09T08:05:01.575Z,14
2019-05-09T08:10:01.819Z,14.5
2019-05-09T08:15:16.325Z,14.8
2019-05-09T08:20:01.776Z,15.4
2019-05-09T08:25:01.542Z,15.7
2019-05-09T08:30:01.852Z,16.1
2019-05-09T08:35:02.002Z,16.7
2019-05-09T08:40:01.876Z,17.1
2019-05-09T08:45:02.211Z,17.2
2019-05-09T08:50:02.013Z,16.8
2019-05-09T08:55:01.870Z,16.6
2019-05-09T09:00:01.901Z,16.5
2019-05-09T09:05:01.784Z,16.4
2019-05-09T09:10:01.382Z,16.5
2019-05-09T09:15:02.245Z,17
2019-05-09T09:20:02.366Z,17
2019-05-09T09:25:01.182Z,16.9
2019-05-09T09:30:16.369Z,16.7
2019-05-09T09:35:01.975Z,16.9
2019-05-09T09:40:01.815Z,16.7
2019-05-09T09:45:01.647Z,17.1
2019-05-09T09:50:01.887Z,17.4
2019-05-09T09:55:02.223Z,17.6
2019-05-09T10:00:01.430Z,18
2019-05-09T10:05:01.955Z,18.3
2019-05-09T10:10:02.240Z,18.3
2019-05-09T10:15:01.216Z,18.2
2019-05-09T10:20:02.200Z,18.3
2019-05-09T10:25:01.217Z,17.9
2019-05-09T10:30:01.532Z,17.7
2019-05-09T10:35:01.278Z,17.4
2019-05-09T10:40:02.065Z,17.1
2019-05-09T10:45:02.051Z,17.6
2019-05-09T10:50:01.665Z,18.5
2019-05-09T10:55:01.313Z,19.2
2019-05-09T11:00:02.889Z,19.2
2019-05-09T11:05:01.281Z,19.1
2019-05-09T11:10:02.065Z,18.8
2019-05-09T11:15:01.254Z,19
2019-05-09T11:20:02.169Z,19.2
2019-05-09T11:25:01.641Z,19.4
2019-05-09T11:30:01.969Z,20
2019-05-09T11:35:01.476Z,20.2
2019-05-09T11:40:01.811Z,20.4
2019-05-09T11:45:01.790Z,19.5
2019-05-09T11:50:01.636Z,19.3
2019-05-09T11:55:01.920Z,19.5
2019-05-09T12:00:01.943Z,19.1
2019-05-09T12:05:01.857Z,18.5
2019-05-09T12:10:01.970Z,17.8
2019-05-09T12:15:01.749Z,17.5
2019-05-09T12:20:10.311Z,17.6
2019-05-09T12:25:02.093Z,17.8
2019-05-09T12:30:02.167Z,18.1
2019-05-09T12:35:01.418Z,18.1
2019-05-09T12:40:01.482Z,18.2
2019-05-09T12:45:01.422Z,19
2019-05-09T12:50:02.861Z,19.7
2019-05-09T12:55:01.377Z,20.4
2019-05-09T13:00:01.424Z,20.5
2019-05-09T13:05:01.944Z,20.1
2019-05-09T13:10:02.252Z,19.3
2019-05-09T13:15:01.897Z,18.8
2019-05-09T13:20:02.025Z,18.2
2019-05-09T13:25:02.901Z,17.7
2019-05-09T13:30:02.231Z,17.1
2019-05-09T13:35:01.633Z,16.7
2019-05-09T13:40:02.207Z,16.4
2019-05-09T13:45:01.504Z,16.1
2019-05-09T13:50:02.300Z,16.1
2019-05-09T13:55:01.267Z,16.1
2019-05-09T14:00:02.030Z,16.3
2019-05-09T14:05:02.015Z,16.4
2019-05-09T14:10:02.134Z,16.4
2019-05-09T14:15:01.831Z,16.5
2019-05-09T14:20:02.213Z,16.4
2019-05-09T14:25:01.874Z,16.3
2019-05-09T14:30:02.418Z,16.2
2019-05-09T14:35:01.545Z,16.2
2019-05-09T14:40:04.064Z,16.3
2019-05-09T14:45:02.171Z,16.3
2019-05-09T14:50:01.235Z,16.5
2019-05-09T14:55:01.295Z,17.1
2019-05-09T15:00:01.403Z,18.1
2019-05-09T15:05:01.729Z,18.8
2019-05-09T15:10:01.771Z,19.2
2019-05-09T15:15:01.327Z,19.6
2019-05-09T15:20:01.526Z,20.1
2019-05-09T15:25:02.081Z,20.2
2019-05-09T15:30:01.203Z,20.3
2019-05-09T15:35:02.812Z,20.4
2019-05-09T15:40:02.117Z,20.4
2019-05-09T15:45:02.086Z,20.3
2019-05-09T15:50:15.425Z,20.3
2019-05-09T15:55:01.764Z,20.8
2019-05-09T16:00:01.750Z,21.1
2019-05-09T16:05:01.508Z,21.2
2019-05-09T16:10:01.814Z,20.8
2019-05-09T16:15:01.794Z,20.2
2019-05-09T16:20:01.769Z,19.7
2019-05-09T16:25:02.011Z,19.5
2019-05-09T16:30:02.083Z,19.5
2019-05-09T16:35:01.195Z,19.2
2019-05-09T16:40:02.351Z,18.8
2019-05-09T16:45:01.397Z,18.6
2019-05-09T16:50:01.348Z,18.9
2019-05-09T16:55:02.308Z,19
2019-05-09T17:00:02.100Z,19.2
2019-05-09T17:05:01.876Z,19.2
2019-05-09T17:10:01.464Z,19.2
2019-05-09T17:15:02.169Z,18.9
2019-05-09T17:20:01.198Z,18.6
2019-05-09T17:25:01.814Z,18.5
2019-05-09T17:30:01.398Z,18.6
2019-05-09T17:35:02.211Z,18.4
2019-05-09T17:40:01.795Z,18.2
2019-05-09T17:45:02.068Z,17.8
2019-05-09T17:50:01.709Z,17.6
2019-05-09T17:55:01.414Z,17.3
2019-05-09T18:00:01.550Z,16.8
2019-05-09T18:05:01.486Z,16.6
2019-05-09T18:10:01.564Z,16.4
2019-05-09T18:15:01.900Z,16.1
2019-05-09T18:20:01.682Z,15.8
2019-05-09T18:25:01.776Z,15.6
2019-05-09T18:30:01.497Z,15.3
2019-05-09T18:35:02.327Z,15
2019-05-09T18:40:02.232Z,14.7
2019-05-09T18:45:01.814Z,14.2
2019-05-09T18:50:01.419Z,14
2019-05-09T18:55:01.507Z,13.9
2019-05-09T19:00:01.939Z,13.8
2019-05-09T19:05:01.928Z,13.6
2019-05-09T19:10:02.026Z,13.6
2019-05-09T19:15:01.494Z,13.5
2019-05-09T19:20:01.367Z,13.4
2019-05-09T19:25:01.851Z,13.2
2019-05-09T19:30:02.057Z,13.1
2019-05-09T19:35:01.778Z,13.1
2019-05-09T19:40:01.410Z,12.9
2019-05-09T19:45:01.834Z,12.9
2019-05-09T19:50:01.477Z,13
2019-05-09T19:55:02.136Z,13
2019-05-09T20:00:01.280Z,13.1
2019-05-09T20:05:02.538Z,13.2
2019-05-09T20:10:01.906Z,13.1
2019-05-09T20:15:01.241Z,13.1
2019-05-09T20:20:01.765Z,13.1
2019-05-09T20:25:02.308Z,13.1
2019-05-09T20:30:01.915Z,13
2019-05-09T20:35:01.204Z,12.9
2019-05-09T20:40:01.680Z,12.7
2019-05-09T20:45:01.901Z,12.7
2019-05-09T20:50:01.902Z,12.6
2019-05-09T20:55:01.498Z,12.6
2019-05-09T21:00:02.162Z,12.6
2019-05-09T21:05:02.024Z,12.5
2019-05-09T21:10:01.979Z,12.4
2019-05-09T21:15:01.382Z,12.3
2019-05-09T21:20:01.659Z,12.2
2019-05-09T21:25:01.844Z,12.2
2019-05-09T21:30:02.204Z,12.2
2019-05-09T21:35:02.058Z,12.1
2019-05-09T21:40:01.385Z,12.2
2019-05-09T21:45:02.190Z,12.2
2019-05-09T21:50:01.279Z,12.3
2019-05-09T21:55:01.819Z,12.2
2019-05-09T22:00:01.729Z,12.2
2019-05-09T22:05:02.107Z,12.2
2019-05-09T22:10:02.394Z,12.2
2019-05-09T22:15:03.769Z,12.1
2019-05-09T22:20:01.828Z,12.1
2019-05-09T22:25:01.969Z,12.1
2019-05-09T22:30:02.247Z,12.1
2019-05-09T22:35:01.457Z,12.1
2019-05-09T22:40:02.053Z,12
2019-05-09T22:45:02.307Z,11.9
2019-05-09T22:50:01.254Z,11.9
2019-05-09T22:55:01.744Z,11.8
2019-05-09T23:00:02.405Z,11.6
2019-05-09T23:05:01.239Z,11.4
2019-05-09T23:10:01.257Z,11.4
2019-05-09T23:15:01.611Z,11.4
2019-05-09T23:20:01.480Z,11.2
2019-05-09T23:25:02.366Z,11.2
2019-05-09T23:30:01.550Z,11
2019-05-09T23:35:01.875Z,11.1
2019-05-09T23:40:01.901Z,11.2
2019-05-09T23:45:01.925Z,11.1
2019-05-09T23:50:01.236Z,11
2019-05-09T23:55:01.745Z,11
